Terminal Aerodrome Forecast
Issued by NWS Upton, NY

Home | Current Version | Previous Version | Text Only | Print | Product List | Glossary On
Versions: 1 2 3 4 5 6 7 8 9 10 11 12 13 14 15 16 17 18 19 20 21 22 23 24 25 26 27
000
FTUS41 KOKX 221531 AAB
TAFBDR
TAF AMD
KBDR 221531Z 2216/2312 21011KT P6SM SCT030 BKN250
     FM222000 20014G22KT P6SM SCT050 BKN250
     FM230200 21014G20KT P6SM SCT007 BKN015 BKN250 PROB30 2304/2308
      5SM TSRA BKN025 BKN050CB
     FM230800 23008KT P6SM VCSH SCT015 BKN025=

USA.gov is the U.S. government's official web portal to all federal, state and local government web resources and services.